Time;durP1;ratioP1;P1;durP2;ratioP2;P2;SDS_P1;SDS_P2;PMS_P1;PMS_P2;Temp;Humidity;BMP_temperature;BMP_pressure;BME280_temperature;BME280_humidity;BME280_pressure;Samples;Min_cycle;Max_cycle;Signal;HPM_P1;HPM_P2
2021/11/06 00:00:18;;;;;;;10.93;7.45;;;;;;;6.46;100.00;101232.88;5092841;28;20040;-75
2021/11/06 00:02:47;;;;;;;12.40;7.20;;;;;;;6.49;100.00;101236.34;5093301;28;20097;-75
2021/11/06 00:05:17;;;;;;;11.82;7.30;;;;;;;6.38;100.00;101242.84;5092640;28;20059;-76
2021/11/06 00:07:45;;;;;;;12.25;6.93;;;;;;;6.32;100.00;101235.94;5092868;28;20044;-72
2021/11/06 00:10:17;;;;;;;12.25;7.55;;;;;;;6.41;100.00;101248.06;5092818;28;20048;-72
2021/11/06 00:12:47;;;;;;;13.65;7.63;;;;;;;6.44;100.00;101250.63;5093049;28;20139;-73
2021/11/06 00:15:15;;;;;;;13.00;8.15;;;;;;;6.41;100.00;101253.38;5092733;28;20493;-73
2021/11/06 00:17:44;;;;;;;11.35;7.60;;;;;;;6.43;100.00;101246.22;5092941;28;20138;-72
2021/11/06 00:20:14;;;;;;;13.52;8.00;;;;;;;6.46;100.00;101254.09;5092169;28;20109;-74
2021/11/06 00:22:44;;;;;;;12.07;7.80;;;;;;;6.38;100.00;101251.69;5092626;28;20048;-72
2021/11/06 00:25:13;;;;;;;12.55;8.07;;;;;;;6.32;100.00;101262.44;5092483;28;20040;-77
2021/11/06 00:27:44;;;;;;;11.63;7.53;;;;;;;6.36;100.00;101263.19;5093052;28;20044;-74
2021/11/06 00:30:13;;;;;;;11.80;7.85;;;;;;;6.31;100.00;101261.56;5092370;28;20523;-78
2021/11/06 00:32:42;;;;;;;12.27;7.75;;;;;;;6.30;100.00;101269.56;5092833;28;20119;-72
2021/11/06 00:35:11;;;;;;;15.25;8.32;;;;;;;6.24;100.00;101265.28;5092870;28;20044;-77
2021/11/06 00:37:40;;;;;;;12.90;8.10;;;;;;;6.24;100.00;101267.94;5092530;28;20048;-76
2021/11/06 00:40:13;;;;;;;13.13;8.05;;;;;;;6.24;100.00;101269.72;5092514;28;20071;-76
2021/11/06 00:42:41;;;;;;;14.63;7.65;;;;;;;6.18;100.00;101264.59;5092653;28;20047;-76
2021/11/06 00:45:10;;;;;;;13.95;8.00;;;;;;;6.14;100.00;101257.59;5092684;28;20434;-77
2021/11/06 00:47:40;;;;;;;11.23;7.72;;;;;;;6.15;100.00;101262.84;5096024;28;20363;-76
2021/11/06 00:50:12;;;;;;;14.45;9.02;;;;;;;6.05;100.00;101268.44;5096653;28;20044;-74
2021/11/06 00:52:41;;;;;;;12.50;8.07;;;;;;;6.13;100.00;101272.63;5096677;28;20071;-75
2021/11/06 00:55:11;;;;;;;13.57;8.10;;;;;;;6.12;100.00;101270.91;5096100;28;20047;-75
2021/11/06 00:57:39;;;;;;;12.25;8.35;;;;;;;6.14;100.00;101268.22;5096166;28;20065;-72
2021/11/06 01:00:11;;;;;;;13.48;8.18;;;;;;;6.06;100.00;101264.88;5096100;28;20101;-72
2021/11/06 01:02:40;;;;;;;13.63;8.00;;;;;;;5.96;100.00;101266.88;5096424;28;20407;-74
2021/11/06 01:05:10;;;;;;;13.40;8.57;;;;;;;5.88;100.00;101268.81;5096138;28;20451;-74
2021/11/06 01:07:38;;;;;;;12.88;8.43;;;;;;;5.91;100.00;101269.66;5095996;28;20040;-74
2021/11/06 01:10:12;;;;;;;12.95;8.40;;;;;;;5.96;100.00;101274.84;5096150;28;20044;-74
2021/11/06 01:12:41;;;;;;;13.98;9.35;;;;;;;5.95;100.00;101270.44;5096036;28;20094;-74
2021/11/06 01:15:12;;;;;;;13.95;8.35;;;;;;;5.97;100.00;101280.09;5096034;28;20040;-74
2021/11/06 01:17:42;;;;;;;14.65;8.48;;;;;;;5.90;100.00;101278.53;5095816;28;20040;-74
2021/11/06 01:20:11;;;;;;;12.82;8.38;;;;;;;6.01;100.00;101283.56;5095941;28;20058;-74
2021/11/06 01:22:40;;;;;;;15.20;8.73;;;;;;;5.82;100.00;101282.22;5095300;28;20081;-73
2021/11/06 01:25:10;;;;;;;12.77;8.43;;;;;;;5.73;100.00;101283.31;5095566;28;20042;-74
2021/11/06 01:27:40;;;;;;;13.75;8.20;;;;;;;5.87;100.00;101286.47;5095158;28;20101;-74
2021/11/06 01:30:10;;;;;;;13.38;8.48;;;;;;;5.76;100.00;101275.28;5095770;28;20093;-74
2021/11/06 01:32:39;;;;;;;15.90;9.02;;;;;;;5.84;100.00;101280.41;5095079;28;20047;-74
2021/11/06 01:35:09;;;;;;;12.48;8.27;;;;;;;5.71;100.00;101278.06;5095372;28;20044;-74
2021/11/06 01:37:38;;;;;;;14.32;8.98;;;;;;;5.68;100.00;101277.25;5095523;28;20097;-74
2021/11/06 01:40:10;;;;;;;14.63;8.93;;;;;;;5.77;100.00;101273.50;5095220;28;20485;-74
2021/11/06 01:42:38;;;;;;;14.30;8.65;;;;;;;5.81;100.00;101280.50;5095233;28;20052;-74
2021/11/06 01:45:08;;;;;;;13.27;8.25;;;;;;;5.74;100.00;101280.63;5109569;28;20039;-74
2021/11/06 01:47:36;;;;;;;14.77;9.05;;;;;;;5.71;100.00;101277.19;5114826;28;20047;-76
2021/11/06 01:50:06;;;;;;;14.77;9.07;;;;;;;5.67;100.00;101273.72;5115750;28;20048;-75
2021/11/06 01:52:35;;;;;;;16.50;8.95;;;;;;;5.62;100.00;101285.34;5115028;28;20048;-72
2021/11/06 01:55:05;;;;;;;14.52;8.50;;;;;;;5.59;100.00;101286.28;5115746;28;20044;-72
2021/11/06 01:57:39;;;;;;;16.07;9.70;;;;;;;5.52;100.00;101284.69;5114403;28;20126;-72
2021/11/06 02:00:14;;;;;;;14.68;8.52;;;;;;;5.56;100.00;101290.78;5097291;28;20686;-72
2021/11/06 02:02:46;;;;;;;14.57;8.68;;;;;;;5.54;100.00;101290.81;5115638;28;20635;-72
2021/11/06 02:05:16;;;;;;;13.68;8.45;;;;;;;5.48;100.00;101285.66;5115501;28;20458;-75
2021/11/06 02:07:45;;;;;;;16.10;9.00;;;;;;;5.41;100.00;101287.59;5115011;28;20093;-75
2021/11/06 02:10:13;;;;;;;14.30;8.60;;;;;;;5.32;100.00;101292.22;5115321;28;20130;-74
2021/11/06 02:12:44;;;;;;;13.88;8.95;;;;;;;5.25;100.00;101293.25;5114762;28;20523;-75
2021/11/06 02:15:14;;;;;;;13.75;8.60;;;;;;;5.27;100.00;101291.44;5115032;28;20061;-75
2021/11/06 02:17:43;;;;;;;14.02;8.50;;;;;;;5.44;100.00;101286.63;5114694;28;20039;-75
2021/11/06 02:20:12;;;;;;;13.88;9.00;;;;;;;5.39;100.00;101284.06;5114938;28;20059;-70
2021/11/06 02:22:43;;;;;;;16.05;9.30;;;;;;;5.31;100.00;101282.53;5114524;28;20054;-72
2021/11/06 02:25:12;;;;;;;14.23;9.18;;;;;;;5.27;100.00;101286.13;5114900;28;20059;-73
2021/11/06 02:28:01;;;;;;;13.80;9.25;;;;;;;5.37;100.00;101285.91;5114917;28;20114;-73
2021/11/06 02:30:29;;;;;;;14.55;9.05;;;;;;;5.40;100.00;101290.25;5114692;28;20051;-74
2021/11/06 02:32:57;;;;;;;14.93;8.80;;;;;;;5.31;100.00;101290.47;5114692;28;20126;-73
2021/11/06 02:35:26;;;;;;;15.82;8.38;;;;;;;5.30;100.00;101299.28;5114139;28;20569;-76
2021/11/06 02:37:58;;;;;;;15.80;9.57;;;;;;;5.21;100.00;101295.09;5114983;28;20100;-75
2021/11/06 02:40:26;;;;;;;16.92;8.75;;;;;;;5.30;100.00;101299.28;5114477;28;20408;-75
2021/11/06 02:42:54;;;;;;;17.45;8.52;;;;;;;5.29;100.00;101297.53;5114930;28;20100;-75
2021/11/06 02:45:23;;;;;;;15.73;8.77;;;;;;;5.26;100.00;101297.63;5114346;28;20135;-76
2021/11/06 02:47:51;;;;;;;18.70;9.63;;;;;;;5.20;100.00;101300.38;5114142;28;20492;-73
2021/11/06 02:50:21;;;;;;;15.35;9.07;;;;;;;5.20;100.00;101303.03;5114631;28;20032;-72
2021/11/06 02:52:50;;;;;;;20.00;9.63;;;;;;;5.14;100.00;101307.56;5114700;28;20043;-74
2021/11/06 02:55:21;;;;;;;15.02;8.98;;;;;;;5.09;100.00;101305.91;5114528;28;20039;-73
2021/11/06 02:57:50;;;;;;;16.42;9.95;;;;;;;5.06;100.00;101311.28;5114389;28;20058;-74
2021/11/06 03:00:22;;;;;;;17.08;9.50;;;;;;;5.05;100.00;101313.06;5114465;28;20039;-74
2021/11/06 03:02:52;;;;;;;18.48;10.25;;;;;;;5.01;100.00;101315.78;5114527;28;20043;-74
2021/11/06 03:05:21;;;;;;;19.27;9.30;;;;;;;5.13;100.00;101316.41;5114035;28;20044;-73
2021/11/06 03:07:49;;;;;;;15.75;8.80;;;;;;;5.07;100.00;101316.53;5113893;28;20071;-75
2021/11/06 03:10:18;;;;;;;15.75;9.63;;;;;;;5.05;100.00;101317.47;5113788;28;20062;-74
2021/11/06 03:12:49;;;;;;;16.38;10.05;;;;;;;5.01;100.00;101329.00;5113551;28;20047;-74
2021/11/06 03:15:19;;;;;;;17.50;10.48;;;;;;;4.97;100.00;101328.19;5114213;28;20050;-74
2021/11/06 03:17:47;;;;;;;19.85;9.57;;;;;;;4.98;100.00;101329.06;5113502;28;20395;-74
2021/11/06 03:20:18;;;;;;;14.60;9.52;;;;;;;4.78;100.00;101332.09;5114190;28;20051;-75
2021/11/06 03:22:46;;;;;;;15.23;9.90;;;;;;;4.75;100.00;101333.03;5113321;28;20058;-74
2021/11/06 03:25:15;;;;;;;19.00;10.32;;;;;;;4.75;100.00;101334.81;5114012;28;20050;-74
2021/11/06 03:27:43;;;;;;;16.75;9.75;;;;;;;4.74;100.00;101335.72;5113452;28;20130;-74
2021/11/06 03:30:13;;;;;;;15.95;10.50;;;;;;;4.67;100.00;101342.88;5113899;28;20051;-75
2021/11/06 03:32:44;;;;;;;15.73;10.10;;;;;;;4.54;100.00;101351.94;5113641;28;20104;-75
2021/11/06 03:35:13;;;;;;;18.23;10.55;;;;;;;4.55;100.00;101351.03;5113597;28;20038;-75
2021/11/06 03:37:44;;;;;;;16.13;9.82;;;;;;;4.49;100.00;101349.34;5113496;28;20089;-75
2021/11/06 03:40:13;;;;;;;16.17;9.65;;;;;;;4.51;100.00;101349.31;5095869;28;20054;-75
2021/11/06 03:42:43;;;;;;;13.73;9.15;;;;;;;4.67;100.00;101344.66;5113664;28;20047;-75
2021/11/06 03:45:12;;;;;;;17.58;10.05;;;;;;;4.64;100.00;101347.34;5113709;28;20096;-75
2021/11/06 03:47:41;;;;;;;16.67;10.05;;;;;;;4.63;100.00;101356.16;5112823;28;20047;-75
2021/11/06 03:50:11;;;;;;;16.00;10.60;;;;;;;4.39;100.00;101361.00;5113742;28;20464;-75
2021/11/06 03:52:40;;;;;;;16.35;10.10;;;;;;;4.20;100.00;101364.84;5113341;28;20453;-75
2021/11/06 03:55:14;;;;;;;16.70;10.32;;;;;;;4.16;100.00;101364.03;5113669;28;20109;-75
2021/11/06 03:57:43;;;;;;;22.88;10.98;;;;;;;4.28;100.00;101377.03;5113448;28;20047;-75
2021/11/06 04:00:15;;;;;;;15.38;9.90;;;;;;;4.22;100.00;101373.59;5113630;28;20373;-75
2021/11/06 04:02:44;;;;;;;16.52;9.68;;;;;;;4.08;100.00;101380.88;5113310;28;20477;-75
2021/11/06 04:05:13;;;;;;;15.90;9.63;;;;;;;3.94;100.00;101381.06;5113525;28;20400;-74
2021/11/06 04:07:42;;;;;;;17.33;10.35;;;;;;;3.87;100.00;101377.69;5113128;28;20067;-75
2021/11/06 04:10:11;;;;;;;15.52;9.30;;;;;;;3.91;100.00;101379.34;5113204;28;20044;-75
2021/11/06 04:12:40;;;;;;;15.15;9.32;;;;;;;3.91;100.00;101374.09;5113117;28;20044;-75
2021/11/06 04:15:11;;;;;;;20.17;9.98;;;;;;;3.89;100.00;101373.25;5113089;28;20043;-75
2021/11/06 04:17:40;;;;;;;13.48;8.73;;;;;;;3.97;100.00;101379.28;5113124;28;20143;-75
2021/11/06 04:20:10;;;;;;;16.77;9.38;;;;;;;3.93;100.00;101381.97;5113267;28;20055;-75
2021/11/06 04:22:39;;;;;;;15.07;9.30;;;;;;;3.72;100.00;101380.53;5116683;28;20109;-74
2021/11/06 04:25:08;;;;;;;15.70;9.60;;;;;;;3.65;100.00;101384.13;5117147;28;20047;-73
2021/11/06 04:27:37;;;;;;;18.20;11.10;;;;;;;3.60;100.00;101383.34;5098820;28;20051;-74
2021/11/06 04:30:06;;;;;;;16.75;10.13;;;;;;;3.72;100.00;101383.16;5117308;28;20381;-74
2021/11/06 04:32:34;;;;;;;13.98;9.27;;;;;;;3.74;100.00;101378.72;5117000;28;20039;-74
2021/11/06 04:35:04;;;;;;;15.82;9.85;;;;;;;3.90;100.00;101388.19;5117223;28;20043;-73
2021/11/06 04:37:33;;;;;;;16.35;9.80;;;;;;;4.42;100.00;101381.19;5116966;28;20093;-73
2021/11/06 04:40:01;;;;;;;19.58;11.23;;;;;;;4.28;100.00;101384.06;5117417;28;20442;-72
2021/11/06 04:42:29;;;;;;;18.40;11.35;;;;;;;4.10;100.00;101379.97;5117100;28;20364;-72
2021/11/06 04:44:58;;;;;;;19.10;11.55;;;;;;;4.15;100.00;101387.78;5116723;28;20495;-72
2021/11/06 04:47:26;;;;;;;18.55;10.80;;;;;;;4.16;100.00;101392.19;5116862;28;20138;-72
2021/11/06 04:49:57;;;;;;;19.30;11.30;;;;;;;4.29;100.00;101388.47;5116962;28;20050;-71
2021/11/06 04:52:26;;;;;;;19.40;11.75;;;;;;;4.09;100.00;101383.50;5116996;28;20040;-71
2021/11/06 04:54:55;;;;;;;20.23;11.95;;;;;;;4.08;100.00;101388.81;5116286;28;20046;-71
2021/11/06 04:57:23;;;;;;;17.48;10.80;;;;;;;3.99;100.00;101393.31;5116840;28;20039;-71
2021/11/06 04:59:51;;;;;;;15.48;10.20;;;;;;;4.01;100.00;101394.16;5116036;28;20883;-71
2021/11/06 05:02:19;;;;;;;17.40;11.10;;;;;;;3.94;100.00;101394.28;5116696;28;20046;-71
2021/11/06 05:04:48;;;;;;;16.52;10.82;;;;;;;3.81;100.00;101398.00;5116364;28;20119;-72
2021/11/06 05:07:16;;;;;;;19.27;11.35;;;;;;;3.68;100.00;101398.19;5116261;28;20044;-73
2021/11/06 05:09:46;;;;;;;20.35;11.35;;;;;;;3.57;100.00;101399.19;5116280;28;20044;-74
2021/11/06 05:12:14;;;;;;;19.90;11.57;;;;;;;3.48;100.00;101404.63;5116489;28;20096;-74
2021/11/06 05:14:43;;;;;;;18.60;11.77;;;;;;;3.44;100.00;101409.91;5116092;28;20048;-74
2021/11/06 05:17:11;;;;;;;19.90;12.52;;;;;;;3.45;100.00;101416.91;5116142;28;20050;-74
2021/11/06 05:19:40;;;;;;;18.42;11.77;;;;;;;3.49;100.00;101417.78;5097575;28;20146;-74
2021/11/06 05:22:08;;;;;;;19.05;11.38;;;;;;;3.49;100.00;101422.19;5116268;28;20047;-74
2021/11/06 05:24:37;;;;;;;21.98;12.32;;;;;;;3.36;100.00;101422.31;5097511;28;20417;-75
2021/11/06 05:27:08;;;;;;;18.05;10.73;;;;;;;3.54;100.00;101421.22;5116254;28;20050;-75
2021/11/06 05:29:53;;;;;;;19.33;11.20;;;;;;;3.52;100.00;101423.00;5115576;28;20433;-74
2021/11/06 05:32:21;;;;;;;16.52;10.75;;;;;;;3.40;100.00;101425.81;5115271;28;20051;-74
2021/11/06 05:34:49;;;;;;;18.23;11.65;;;;;;;3.33;100.00;101430.28;5115405;28;20070;-75
2021/11/06 05:37:18;;;;;;;18.98;10.95;;;;;;;3.56;100.00;101429.09;5115782;28;20055;-74
2021/11/06 05:39:46;;;;;;;16.88;10.90;;;;;;;3.72;100.00;101428.91;5115669;28;20071;-73
2021/11/06 05:42:16;;;;;;;18.83;11.68;;;;;;;3.70;100.00;101437.72;5115641;28;20051;-73
2021/11/06 05:44:44;;;;;;;19.70;10.95;;;;;;;3.60;100.00;101436.09;5115317;28;20127;-75
2021/11/06 05:47:13;;;;;;;17.85;11.07;;;;;;;3.45;100.00;101440.66;5115605;28;20088;-75
2021/11/06 05:49:41;;;;;;;18.70;12.05;;;;;;;3.53;100.00;101442.34;5115358;28;20501;-75
2021/11/06 05:52:28;;;;;;;19.38;12.25;;;;;;;3.51;100.00;101452.91;5115880;28;20134;-75
2021/11/06 05:54:57;;;;;;;19.92;11.85;;;;;;;3.45;100.00;101467.03;5115424;28;20035;-72
2021/11/06 05:57:26;;;;;;;17.83;11.45;;;;;;;3.51;100.00;101474.03;5115548;28;20039;-73
2021/11/06 05:59:54;;;;;;;19.30;12.38;;;;;;;3.52;100.00;101475.78;5114740;28;20481;-73
2021/11/06 06:02:22;;;;;;;20.08;12.65;;;;;;;3.55;100.00;101478.34;5115393;28;20071;-72
2021/11/06 06:04:51;;;;;;;20.20;12.18;;;;;;;3.65;100.00;101487.03;5115127;28;20043;-73
2021/11/06 06:07:20;;;;;;;21.77;12.70;;;;;;;3.62;100.00;101497.63;5115092;28;20526;-72
2021/11/06 06:09:48;;;;;;;18.83;12.25;;;;;;;3.64;100.00;101501.13;5115062;28;20140;-72
2021/11/06 06:12:16;;;;;;;20.50;12.45;;;;;;;3.72;100.00;101496.63;5115030;28;20388;-75
2021/11/06 06:14:46;;;;;;;22.23;12.95;;;;;;;3.64;100.00;101507.28;5114934;28;20374;-75
2021/11/06 06:17:14;;;;;;;21.02;12.43;;;;;;;3.68;100.00;101502.84;5115263;28;20434;-74
2021/11/06 06:19:43;;;;;;;20.13;12.25;;;;;;;4.00;100.00;101505.06;5114649;28;20047;-75
2021/11/06 06:22:11;;;;;;;22.45;12.32;;;;;;;3.99;100.00;101496.28;5115027;28;20035;-74
2021/11/06 06:24:40;;;;;;;21.45;12.70;;;;;;;4.11;100.00;101494.38;5114749;28;20069;-77
2021/11/06 06:27:08;;;;;;;19.75;13.20;;;;;;;4.41;100.00;101493.91;5114808;28;20055;-75
2021/11/06 06:29:36;;;;;;;21.05;12.50;;;;;;;4.56;100.00;101488.41;5114247;28;20039;-74
2021/11/06 06:32:06;;;;;;;20.08;12.45;;;;;;;4.43;100.00;101478.91;5114217;28;20044;-76
2021/11/06 06:34:35;;;;;;;20.80;13.73;;;;;;;4.35;100.00;101490.53;5114597;28;20122;-75
2021/11/06 06:37:04;;;;;;;22.70;13.32;;;;;;;4.30;100.00;101499.38;5114464;28;20115;-74
2021/11/06 06:39:32;;;;;;;20.73;13.00;;;;;;;4.32;100.00;101491.41;5114320;28;20358;-74
2021/11/06 06:42:01;;;;;;;20.83;12.88;;;;;;;4.48;100.00;101498.22;5114066;28;20044;-74
2021/11/06 06:44:29;;;;;;;23.20;12.85;;;;;;;4.53;100.00;101499.00;5095788;28;20438;-73
2021/11/06 06:46:58;;;;;;;23.67;14.00;;;;;;;4.53;100.00;101492.84;5113858;28;20457;-76
2021/11/06 06:49:27;;;;;;;21.17;13.10;;;;;;;4.61;100.00;101498.91;5115069;28;20487;-72
2021/11/06 06:51:56;;;;;;;20.73;13.32;;;;;;;4.66;100.00;101498.84;5114271;28;20084;-75
2021/11/06 06:54:24;;;;;;;21.75;13.20;;;;;;;4.71;100.00;101505.78;5113971;28;20381;-75
2021/11/06 06:56:53;;;;;;;20.70;13.57;;;;;;;4.69;100.00;101514.63;5113147;28;20472;-73
2021/11/06 06:59:21;;;;;;;21.27;13.38;;;;;;;4.56;100.00;101522.78;5114077;28;20373;-75
2021/11/06 07:01:49;;;;;;;20.38;13.25;;;;;;;4.79;100.00;101519.75;5113723;28;20139;-76
2021/11/06 07:04:18;;;;;;;22.30;13.65;;;;;;;4.90;100.00;101530.16;5114369;28;20045;-75
2021/11/06 07:06:51;;;;;;;20.92;13.13;;;;;;;4.99;100.00;101527.34;5113590;28;20096;-75
2021/11/06 07:09:19;;;;;;;19.88;13.00;;;;;;;5.02;100.00;101529.97;5114358;28;20089;-72
2021/11/06 07:11:48;;;;;;;21.83;13.07;;;;;;;5.08;100.00;101532.47;5113487;28;20046;-73
2021/11/06 07:14:17;;;;;;;23.60;13.63;;;;;;;5.06;100.00;101529.00;5114091;28;20036;-74
2021/11/06 07:16:46;;;;;;;21.45;12.60;;;;;;;5.00;100.00;101529.09;5113718;28;20074;-74
2021/11/06 07:19:15;;;;;;;22.25;12.68;;;;;;;5.43;100.00;101549.50;5095369;28;20043;-74
2021/11/06 07:21:43;;;;;;;20.65;12.50;;;;;;;5.54;100.00;101546.66;5113935;28;20068;-72
2021/11/06 07:24:14;;;;;;;21.95;12.88;;;;;;;5.53;100.00;101547.56;5113367;28;20089;-73
2021/11/06 07:26:42;;;;;;;21.15;13.48;;;;;;;5.42;100.00;101539.84;5114149;28;20172;-71
2021/11/06 07:29:12;;;;;;;22.48;13.95;;;;;;;5.40;100.00;101550.44;5113289;28;20039;-73
2021/11/06 07:31:40;;;;;;;21.83;13.98;;;;;;;5.53;100.00;101556.38;5113375;28;20044;-74
2021/11/06 07:34:09;;;;;;;21.45;13.93;;;;;;;5.45;100.00;101560.94;5113264;28;20153;-73
2021/11/06 07:36:37;;;;;;;21.88;12.45;;;;;;;5.66;100.00;101571.13;5113547;28;20043;-75
2021/11/06 07:39:05;;;;;;;20.30;12.45;;;;;;;5.65;100.00;101569.38;5113092;28;20786;-73
2021/11/06 07:41:35;;;;;;;20.40;13.15;;;;;;;5.73;100.00;101580.69;5113528;28;20043;-73
2021/11/06 07:44:04;;;;;;;19.58;12.38;;;;;;;5.80;100.00;101560.28;5112504;28;20496;-75
2021/11/06 07:46:32;;;;;;;20.38;11.95;;;;;;;5.85;100.00;101573.41;5113346;28;20075;-75
2021/11/06 07:49:03;;;;;;;17.65;11.82;;;;;;;6.12;100.00;101572.03;5113013;28;20073;-70
2021/11/06 07:51:34;;;;;;;19.15;11.52;;;;;;;6.02;100.00;101576.63;5114156;28;20089;-70
2021/11/06 07:54:02;;;;;;;19.05;11.60;;;;;;;5.85;100.00;101582.22;5116184;28;20055;-70
2021/11/06 07:56:30;;;;;;;19.90;12.00;;;;;;;6.00;100.00;101581.09;5112629;28;20054;-76
2021/11/06 07:59:00;;;;;;;19.40;12.07;;;;;;;6.14;100.00;101581.69;5112904;28;20044;-74
2021/11/06 08:01:30;;;;;;;20.48;13.00;;;;;;;6.11;100.00;101576.44;5113716;28;20039;-75
2021/11/06 08:03:58;;;;;;;26.02;15.15;;;;;;;6.06;100.00;101577.44;5112703;28;20546;-75
2021/11/06 08:06:26;;;;;;;23.48;14.32;;;;;;;6.06;100.00;101586.25;5113069;28;20039;-75
2021/11/06 08:08:54;;;;;;;20.85;14.02;;;;;;;6.03;100.00;101578.38;5112726;28;20097;-75
2021/11/06 08:11:24;;;;;;;26.40;14.10;;;;;;;6.01;100.00;101574.91;5112971;28;20050;-73
2021/11/06 08:13:55;;;;;;;22.35;13.93;;;;;;;5.96;100.00;101582.03;5112953;28;20046;-73
2021/11/06 08:16:25;;;;;;;22.95;14.30;;;;;;;5.95;100.00;101580.31;5113094;28;20044;-73
2021/11/06 08:18:53;;;;;;;19.83;13.23;;;;;;;5.97;100.00;101589.09;5112052;28;20048;-72
2021/11/06 08:21:21;;;;;;;21.05;12.82;;;;;;;5.99;100.00;101592.59;5112409;28;20062;-71
2021/11/06 08:23:52;;;;;;;20.38;13.30;;;;;;;6.11;100.00;101597.66;5112949;28;20074;-71
2021/11/06 08:26:20;;;;;;;21.55;13.75;;;;;;;6.25;100.00;101586.75;5113173;28;20048;-71
2021/11/06 08:28:48;;;;;;;19.67;12.73;;;;;;;6.43;100.00;101588.13;5112735;28;20051;-70
2021/11/06 08:31:18;;;;;;;18.35;11.63;;;;;;;6.65;100.00;101577.91;5112730;28;20039;-71
2021/11/06 08:33:49;;;;;;;21.88;13.95;;;;;;;6.55;100.00;101574.59;5112728;28;20130;-71
2021/11/06 08:36:36;;;;;;;17.55;12.02;;;;;;;6.54;100.00;101583.47;5113035;28;20476;-71
2021/11/06 08:39:04;;;;;;;18.38;11.70;;;;;;;6.70;100.00;101576.91;5112763;28;20067;-72
2021/11/06 08:41:51;;;;;;;17.83;11.07;;;;;;;6.83;100.00;101583.66;5112991;28;20040;-72
2021/11/06 08:44:26;;;;;;;19.25;11.30;;;;;;;7.03;100.00;101595.59;5112763;28;20123;-73
2021/11/06 08:46:56;;;;;;;15.27;10.90;;;;;;;6.88;100.00;101588.88;5112388;28;20450;-73
2021/11/06 08:49:26;;;;;;;17.45;11.35;;;;;;;6.85;100.00;101592.47;5111691;28;20035;-70
2021/11/06 08:52:03;;;;;;;16.30;11.00;;;;;;;6.78;100.00;101587.34;5110456;28;20043;-72
2021/11/06 08:54:32;;;;;;;19.38;11.15;;;;;;;6.92;100.00;101594.97;5112420;28;20044;-71
2021/11/06 08:57:00;;;;;;;13.45;8.65;;;;;;;7.38;100.00;101598.25;5111542;28;20442;-72
2021/11/06 08:59:28;;;;;;;12.93;8.40;;;;;;;7.35;100.00;101597.47;5111985;28;20066;-71
2021/11/06 09:01:57;;;;;;;12.25;7.70;;;;;;;7.29;100.00;101602.91;5111243;28;20039;-70
2021/11/06 09:04:29;;;;;;;11.20;6.68;;;;;;;7.21;100.00;101603.09;5111922;28;20039;-73
2021/11/06 09:06:58;;;;;;;11.73;7.90;;;;;;;7.25;100.00;101599.47;5111807;28;20046;-75
2021/11/06 09:09:26;;;;;;;13.57;8.10;;;;;;;7.22;100.00;101602.19;5097662;28;20154;-69
2021/11/06 09:11:56;;;;;;;12.80;8.07;;;;;;;7.52;100.00;101604.97;5114939;28;20088;-69
2021/11/06 09:14:24;;;;;;;12.10;7.10;;;;;;;7.80;100.00;101605.97;5115486;28;20044;-71
2021/11/06 09:16:53;;;;;;;10.07;6.63;;;;;;;7.98;98.80;101608.13;5114714;28;20051;-75
2021/11/06 09:19:22;;;;;;;11.38;7.07;;;;;;;8.03;98.89;101603.56;5114523;28;20057;-71
2021/11/06 09:21:52;;;;;;;9.77;5.97;;;;;;;7.96;97.90;101607.31;5114813;28;20051;-72
2021/11/06 09:24:21;;;;;;;9.20;6.13;;;;;;;7.85;98.46;101609.41;5096810;28;20116;-71
2021/11/06 09:26:49;;;;;;;9.35;6.18;;;;;;;8.02;96.86;101612.47;5114573;28;20047;-71
2021/11/06 09:29:18;;;;;;;11.18;7.10;;;;;;;8.07;96.83;101609.66;5114591;28;20485;-71
2021/11/06 09:31:47;;;;;;;9.77;6.40;;;;;;;7.96;97.25;101599.34;5114118;28;20039;-70
2021/11/06 09:34:15;;;;;;;10.52;6.53;;;;;;;7.99;97.33;101596.59;5114489;28;20063;-71
2021/11/06 09:36:45;;;;;;;11.32;6.80;;;;;;;7.92;98.69;101595.03;5114553;28;20055;-72
2021/11/06 09:39:14;;;;;;;9.70;5.80;;;;;;;8.47;94.24;101593.44;5100522;28;20146;-71
2021/11/06 09:41:43;;;;;;;10.98;6.47;;;;;;;8.67;93.21;101594.63;5114673;28;20047;-70
2021/11/06 09:44:12;;;;;;;9.00;5.68;;;;;;;8.44;93.55;101593.53;5113830;28;20051;-70
2021/11/06 09:46:40;;;;;;;8.32;5.63;;;;;;;8.54;92.36;101595.00;5095052;28;20073;-70
2021/11/06 09:49:09;;;;;;;11.10;6.28;;;;;;;8.41;93.52;101584.81;5113503;28;20100;-69
2021/11/06 09:51:37;;;;;;;8.70;6.28;;;;;;;8.46;93.83;101597.03;5113521;28;20051;-68
2021/11/06 09:54:06;;;;;;;8.98;5.47;;;;;;;8.71;92.58;101583.84;5113441;28;20588;-70
2021/11/06 09:56:36;;;;;;;6.95;4.07;;;;;;;8.77;88.19;101591.63;5113832;28;20044;-68
2021/11/06 09:59:06;;;;;;;7.20;4.10;;;;;;;8.62;89.86;101585.94;5113369;28;20523;-69
2021/11/06 10:01:36;;;;;;;5.25;3.60;;;;;;;8.68;87.87;101583.06;5113940;28;20047;-70
2021/11/06 10:04:08;;;;;;;7.13;4.65;;;;;;;8.59;88.85;101586.91;5114051;28;20323;-71
2021/11/06 10:06:38;;;;;;;7.28;4.55;;;;;;;8.54;89.64;101595.00;5114358;28;20035;-70
2021/11/06 10:09:09;;;;;;;8.00;4.18;;;;;;;8.60;88.00;101581.53;5114251;28;20044;-71
2021/11/06 10:11:43;;;;;;;7.53;5.00;;;;;;;8.91;86.52;101579.69;5114084;28;20537;-71
2021/11/06 10:14:18;;;;;;;8.05;4.70;;;;;;;8.76;87.78;101567.72;5113599;28;20070;-72
2021/11/06 10:16:55;;;;;;;7.00;4.60;;;;;;;8.58;88.92;101569.19;5114782;28;20405;-71
2021/11/06 10:19:29;;;;;;;7.40;4.85;;;;;;;8.56;88.73;101561.25;5111789;28;20122;-71
2021/11/06 10:22:08;;;;;;;9.02;5.47;;;;;;;8.40;90.34;101570.63;5113850;28;20039;-72
2021/11/06 10:24:41;;;;;;;8.88;5.55;;;;;;;8.48;90.34;101562.41;5114011;28;20446;-71
2021/11/06 10:27:21;;;;;;;9.65;6.03;;;;;;;9.05;87.29;101551.69;5114240;28;20039;-71
2021/11/06 10:30:05;;;;;;;8.40;5.63;;;;;;;8.77;89.27;101548.19;5095139;28;20044;-70
2021/11/06 10:32:35;;;;;;;9.38;5.32;;;;;;;8.62;89.19;101554.00;5113037;28;20043;-70
2021/11/06 10:35:15;;;;;;;11.48;6.13;;;;;;;8.77;90.98;101550.84;5113626;28;20039;-69
2021/11/06 10:37:45;;;;;;;8.73;5.90;;;;;;;8.94;89.46;101545.84;5113436;28;20109;-70
2021/11/06 10:40:14;;;;;;;8.07;5.35;;;;;;;8.79;90.16;101549.91;5113204;28;20063;-71
2021/11/06 10:42:50;;;;;;;9.63;6.07;;;;;;;8.59;91.56;101539.91;5112875;28;20043;-70
2021/11/06 10:45:21;;;;;;;7.85;5.70;;;;;;;8.60;91.81;101541.63;5113552;28;20123;-72
2021/11/06 10:47:53;;;;;;;9.65;6.10;;;;;;;8.47;91.54;101539.38;5113714;28;20040;-70
2021/11/06 10:50:46;;;;;;;9.75;6.13;;;;;;;8.39;92.56;101533.44;5113018;28;20047;-69
2021/11/06 10:53:18;;;;;;;12.00;6.10;;;;;;;8.36;92.80;101531.75;5112674;28;20047;-74
2021/11/06 10:55:46;;;;;;;9.32;5.80;;;;;;;9.03;88.34;101524.25;5113636;28;20050;-70
2021/11/06 10:58:24;;;;;;;8.20;5.70;;;;;;;9.25;87.01;101523.53;5112797;28;20127;-69
2021/11/06 11:00:56;;;;;;;7.05;5.10;;;;;;;9.53;85.83;101518.09;5112892;28;20047;-70
2021/11/06 11:03:26;;;;;;;10.77;6.70;;;;;;;9.57;84.45;101520.63;5112924;28;20481;-70
2021/11/06 11:05:56;;;;;;;9.70;5.80;;;;;;;9.51;84.86;101520.81;5113453;28;20494;-69
2021/11/06 11:08:25;;;;;;;12.10;5.90;;;;;;;9.17;86.13;101519.34;5113084;28;20051;-69
2021/11/06 11:10:53;;;;;;;10.13;5.47;;;;;;;8.98;88.46;101512.06;5112957;28;20044;-71
2021/11/06 11:13:25;;;;;;;11.18;5.22;;;;;;;8.98;88.28;101510.25;5112872;28;20070;-71
2021/11/06 11:15:55;;;;;;;8.05;4.93;;;;;;;9.64;83.55;101494.59;5112976;28;20491;-71
2021/11/06 11:18:33;;;;;;;7.80;4.95;;;;;;;9.89;82.65;101491.91;5112553;28;20039;-71
2021/11/06 11:21:09;;;;;;;7.95;5.00;;;;;;;9.80;81.90;101477.13;5112555;28;20130;-71
2021/11/06 11:23:38;;;;;;;8.38;5.18;;;;;;;9.95;81.73;101478.38;5112435;28;20101;-71
2021/11/06 11:26:07;;;;;;;7.82;4.75;;;;;;;9.87;81.02;101477.78;5112471;28;20044;-71
2021/11/06 11:28:38;;;;;;;10.13;5.15;;;;;;;9.79;82.26;101474.53;5111973;28;20046;-71